createdAt,value
2018-08-17T00:00:01.206Z,21.97
2018-08-17T00:02:29.232Z,20.83
2018-08-17T00:04:57.226Z,22.17
2018-08-17T00:07:25.265Z,21.40
2018-08-17T00:09:53.317Z,20.87
2018-08-17T00:12:21.320Z,20.63
2018-08-17T00:14:49.275Z,21.50
2018-08-17T00:17:17.254Z,22.47
2018-08-17T00:19:45.336Z,23.83
2018-08-17T00:22:13.264Z,21.63
2018-08-17T00:24:41.206Z,20.87
2018-08-17T00:27:09.299Z,21.17
2018-08-17T00:29:37.214Z,21.47
2018-08-17T00:32:05.197Z,21.53
2018-08-17T00:34:33.147Z,23.47
2018-08-17T00:37:01.191Z,23.57
2018-08-17T00:39:29.213Z,21.20
2018-08-17T00:41:57.128Z,20.67
2018-08-17T00:44:25.095Z,22.77
2018-08-17T00:46:53.196Z,21.70
2018-08-17T00:49:21.274Z,20.30
2018-08-17T00:51:49.249Z,21.10
2018-08-17T00:54:17.270Z,20.03
2018-08-17T00:56:45.276Z,20.87
2018-08-17T00:59:13.256Z,22.30
2018-08-17T01:01:41.258Z,22.07
2018-08-17T01:04:09.331Z,21.33
2018-08-17T01:06:37.330Z,21.63
2018-08-17T01:09:07.405Z,21.97
2018-08-17T01:11:35.461Z,23.53
2018-08-17T01:14:03.505Z,24.33
2018-08-17T01:16:31.514Z,24.30
2018-08-17T01:18:59.404Z,23.77
2018-08-17T01:21:27.492Z,25.27
2018-08-17T01:23:55.526Z,26.30
2018-08-17T01:26:23.522Z,26.77
2018-08-17T01:28:51.560Z,26.87
2018-08-17T01:31:19.741Z,27.07
2018-08-17T01:33:47.775Z,28.07
2018-08-17T01:36:15.787Z,26.90
2018-08-17T01:38:43.818Z,22.20
2018-08-17T01:41:11.786Z,24.50
2018-08-17T01:43:39.807Z,33.23
2018-08-17T01:46:07.880Z,23.23
2018-08-17T01:48:35.922Z,23.43
2018-08-17T01:51:04.176Z,22.93
2018-08-17T01:53:32.139Z,23.90
2018-08-17T01:56:00.094Z,22.83
2018-08-17T01:58:28.121Z,26.07
2018-08-17T02:00:56.081Z,26.27
2018-08-17T02:03:24.078Z,30.33
2018-08-17T02:05:52.109Z,24.40
2018-08-17T02:08:20.084Z,28.97
2018-08-17T02:10:48.058Z,30.63
2018-08-17T02:13:16.105Z,26.60
2018-08-17T02:15:44.177Z,27.50
2018-08-17T02:18:12.308Z,22.53
2018-08-17T02:20:40.264Z,21.63
2018-08-17T02:23:08.177Z,22.00
2018-08-17T02:25:36.145Z,23.43
2018-08-17T02:28:04.230Z,25.20
2018-08-17T02:30:32.359Z,27.53
2018-08-17T02:33:00.338Z,31.03
2018-08-17T02:35:28.242Z,30.53
2018-08-17T02:37:56.277Z,29.53
2018-08-17T02:40:24.289Z,15.73
2018-08-17T02:42:52.261Z,14.37
2018-08-17T02:45:20.200Z,15.00
2018-08-17T02:47:48.208Z,13.40
2018-08-17T02:50:16.188Z,9.87
2018-08-17T02:52:44.161Z,11.17
2018-08-17T02:55:12.058Z,13.27
2018-08-17T02:57:51.759Z,11.47
2018-08-17T03:00:19.751Z,9.93
2018-08-17T03:02:47.744Z,9.97
2018-08-17T03:05:15.774Z,9.17
2018-08-17T03:07:43.758Z,7.83
2018-08-17T03:10:12.557Z,9.33
2018-08-17T03:12:41.549Z,10.27
2018-08-17T03:15:09.520Z,8.70
2018-08-17T03:17:37.433Z,10.97
2018-08-17T03:20:06.355Z,8.70
2018-08-17T03:22:34.407Z,11.00
2018-08-17T03:25:02.438Z,9.63
2018-08-17T03:27:30.439Z,9.00
2018-08-17T03:29:58.397Z,12.53
2018-08-17T03:32:26.390Z,10.17
2018-08-17T03:34:54.480Z,10.57
2018-08-17T03:37:22.489Z,11.00
2018-08-17T03:39:50.488Z,9.77
2018-08-17T03:42:18.554Z,11.47
2018-08-17T03:44:47.551Z,14.33
2018-08-17T03:47:15.435Z,10.73
2018-08-17T03:49:43.460Z,11.80
2018-08-17T03:52:11.397Z,12.93
2018-08-17T03:54:39.429Z,10.37
2018-08-17T03:57:07.461Z,20.87
2018-08-17T03:59:35.438Z,10.57
2018-08-17T04:02:03.573Z,12.80
2018-08-17T04:04:32.601Z,12.77
2018-08-17T04:07:00.740Z,13.90
2018-08-17T04:09:28.691Z,11.87
2018-08-17T04:11:56.784Z,12.77
2018-08-17T04:14:24.772Z,10.77
2018-08-17T04:16:52.807Z,12.53
2018-08-17T04:19:20.853Z,16.00
2018-08-17T04:21:48.867Z,10.97
2018-08-17T04:24:16.823Z,11.33
2018-08-17T04:26:44.788Z,11.63
2018-08-17T04:29:12.786Z,11.70
2018-08-17T04:31:40.784Z,11.00
2018-08-17T04:34:08.733Z,13.27
2018-08-17T04:36:37.822Z,11.10
2018-08-17T04:39:06.706Z,8.47
2018-08-17T04:41:34.662Z,12.57
2018-08-17T04:44:02.639Z,12.77
2018-08-17T04:46:30.679Z,7.97
2018-08-17T04:48:58.632Z,8.80
2018-08-17T04:51:26.549Z,10.63
2018-08-17T04:53:55.544Z,10.43
2018-08-17T04:56:23.646Z,8.10
2018-08-17T04:58:51.609Z,9.33
2018-08-17T05:01:19.659Z,12.00
2018-08-17T05:03:47.780Z,10.40
2018-08-17T05:06:15.834Z,11.17
2018-08-17T05:08:43.860Z,18.07
2018-08-17T05:11:11.831Z,17.57
2018-08-17T05:13:39.818Z,22.77
2018-08-17T05:16:07.829Z,44.17
2018-08-17T05:18:35.768Z,51.70
2018-08-17T05:21:03.790Z,48.27
2018-08-17T05:23:31.773Z,36.60
2018-08-17T05:25:59.785Z,28.07
2018-08-17T05:28:27.970Z,23.33
2018-08-17T05:30:55.935Z,28.23
2018-08-17T05:33:23.994Z,45.87
2018-08-17T05:35:52.031Z,38.90
2018-08-17T05:38:19.874Z,35.13
2018-08-17T05:40:47.909Z,37.10
2018-08-17T05:43:15.998Z,36.03
2018-08-17T05:45:44.112Z,40.90
2018-08-17T05:48:12.049Z,38.80
2018-08-17T05:50:40.267Z,39.73
2018-08-17T05:53:08.258Z,31.27
2018-08-17T05:55:36.234Z,43.23
2018-08-17T05:58:04.311Z,32.93
2018-08-17T06:00:32.379Z,27.93
2018-08-17T06:03:00.337Z,29.43
2018-08-17T06:05:28.404Z,39.57
2018-08-17T06:07:56.451Z,40.13
2018-08-17T06:10:24.525Z,40.17
2018-08-17T06:12:52.585Z,51.33
2018-08-17T06:15:20.628Z,46.27
2018-08-17T06:17:48.697Z,48.47
2018-08-17T06:20:16.741Z,63.20
2018-08-17T06:22:44.906Z,54.03
2018-08-17T06:25:14.031Z,56.17
2018-08-17T06:27:42.705Z,54.57
2018-08-17T06:30:12.506Z,44.03
2018-08-17T06:32:40.986Z,58.93
2018-08-17T06:35:10.415Z,69.83
2018-08-17T06:37:39.681Z,47.67
2018-08-17T06:40:08.718Z,58.13
2018-08-17T06:42:36.748Z,57.43
2018-08-17T06:45:06.975Z,44.20
2018-08-17T06:47:35.025Z,56.10
2018-08-17T06:50:03.132Z,50.03
2018-08-17T06:52:31.192Z,47.60
2018-08-17T06:54:59.131Z,60.63
2018-08-17T06:57:27.180Z,51.10
2018-08-17T06:59:55.233Z,47.60
2018-08-17T07:02:23.311Z,47.43
2018-08-17T07:04:51.277Z,38.47
2018-08-17T07:07:20.154Z,45.70
2018-08-17T07:09:48.275Z,49.33
2018-08-17T07:12:16.243Z,34.03
2018-08-17T07:14:44.257Z,47.13
2018-08-17T07:17:12.229Z,33.20
2018-08-17T07:19:40.324Z,34.53
2018-08-17T07:22:08.465Z,24.50
2018-08-17T07:24:36.467Z,28.30
2018-08-17T07:27:04.578Z,24.57
2018-08-17T07:29:32.673Z,24.33
2018-08-17T07:32:00.639Z,29.40
2018-08-17T07:34:28.588Z,16.07
2018-08-17T07:36:56.590Z,13.50
2018-08-17T07:39:24.630Z,13.57
2018-08-17T07:41:52.795Z,23.47
2018-08-17T07:44:20.768Z,24.40
2018-08-17T07:46:48.765Z,27.90
2018-08-17T07:49:16.777Z,19.77
2018-08-17T07:51:44.912Z,21.63
2018-08-17T07:54:12.935Z,21.50
2018-08-17T07:56:41.127Z,22.50
2018-08-17T07:59:09.154Z,22.93
2018-08-17T08:01:37.080Z,17.70
2018-08-17T08:04:05.022Z,20.90
2018-08-17T08:06:33.058Z,17.93
2018-08-17T08:09:01.064Z,21.03
2018-08-17T08:11:29.043Z,16.70
2018-08-17T08:13:57.120Z,15.97
2018-08-17T08:16:25.116Z,15.40
2018-08-17T08:18:53.147Z,16.50
2018-08-17T08:21:21.126Z,16.00
2018-08-17T08:23:49.151Z,17.27
2018-08-17T08:26:17.297Z,19.97
2018-08-17T08:28:45.468Z,17.30
2018-08-17T08:31:13.508Z,16.80
2018-08-17T08:33:41.617Z,19.23
2018-08-17T08:36:09.571Z,32.60
2018-08-17T08:38:37.578Z,24.03
2018-08-17T08:41:05.738Z,34.60
2018-08-17T08:43:33.723Z,30.50
2018-08-17T08:46:01.779Z,19.87
2018-08-17T08:48:29.912Z,32.27
2018-08-17T08:50:58.049Z,42.67
2018-08-17T08:53:26.055Z,28.10
2018-08-17T08:55:54.110Z,34.23
2018-08-17T08:58:22.094Z,30.67
2018-08-17T09:00:50.035Z,30.57
2018-08-17T09:03:18.259Z,34.33
2018-08-17T09:05:46.232Z,29.07
2018-08-17T09:08:14.309Z,27.43
2018-08-17T09:10:43.841Z,23.37
2018-08-17T09:13:11.910Z,19.60
2018-08-17T09:15:40.209Z,22.27
2018-08-17T09:18:08.364Z,29.73
2018-08-17T09:20:36.603Z,24.57
2018-08-17T09:23:04.599Z,33.63
2018-08-17T09:25:32.617Z,27.47
2018-08-17T09:28:00.692Z,40.20
2018-08-17T09:30:28.701Z,47.23
2018-08-17T09:32:56.742Z,45.70
2018-08-17T09:35:24.727Z,48.27
2018-08-17T09:37:52.844Z,39.97
2018-08-17T09:40:20.951Z,45.73
2018-08-17T09:42:48.901Z,34.57
2018-08-17T09:45:16.997Z,44.67
2018-08-17T09:47:45.152Z,49.60
2018-08-17T09:50:20.546Z,32.77
2018-08-17T09:52:48.670Z,23.33
2018-08-17T09:55:16.653Z,25.10
2018-08-17T09:57:44.839Z,26.80
2018-08-17T10:00:14.263Z,28.53
2018-08-17T10:02:48.536Z,35.87
2018-08-17T10:05:39.077Z,30.47
2018-08-17T10:08:12.935Z,26.67
2018-08-17T10:10:41.149Z,26.80
2018-08-17T10:13:09.165Z,25.90
2018-08-17T10:15:37.161Z,29.87
2018-08-17T10:18:05.324Z,24.83
2018-08-17T10:20:33.371Z,28.97
2018-08-17T10:23:04.947Z,24.70
2018-08-17T10:25:33.046Z,24.43
2018-08-17T10:28:01.031Z,20.90
2018-08-17T10:30:29.026Z,21.97
2018-08-17T10:32:58.245Z,18.63
2018-08-17T10:35:28.248Z,13.17
2018-08-17T10:37:57.607Z,11.30
2018-08-17T10:40:26.151Z,14.80
2018-08-17T10:42:54.276Z,8.43
2018-08-17T10:45:24.588Z,10.47
2018-08-17T10:47:53.078Z,10.37
2018-08-17T10:50:23.294Z,14.23
2018-08-17T10:52:55.504Z,11.27
2018-08-17T10:55:45.096Z,12.23
2018-08-17T10:58:15.641Z,13.73
2018-08-17T11:00:43.612Z,12.83
2018-08-17T11:03:11.733Z,13.93
2018-08-17T11:05:40.027Z,10.83
2018-08-17T11:08:08.172Z,7.00
2018-08-17T11:10:36.191Z,10.27
2018-08-17T11:13:10.073Z,9.73
2018-08-17T11:15:38.207Z,9.27
2018-08-17T11:18:06.437Z,8.67
2018-08-17T11:20:34.531Z,11.03
2018-08-17T11:23:02.583Z,13.83
2018-08-17T11:25:30.692Z,15.63
2018-08-17T11:27:58.762Z,15.03
2018-08-17T11:30:26.863Z,13.83
2018-08-17T11:32:54.876Z,12.20
2018-08-17T11:35:22.934Z,14.27
2018-08-17T11:37:50.995Z,14.03
2018-08-17T11:40:19.064Z,12.20
2018-08-17T11:42:48.253Z,21.13
2018-08-17T11:45:20.257Z,13.40
2018-08-17T11:47:48.607Z,13.47
2018-08-17T11:50:19.529Z,13.90
2018-08-17T11:52:52.657Z,12.47
2018-08-17T11:55:21.570Z,9.87
2018-08-17T11:57:49.674Z,7.97
2018-08-17T12:00:17.748Z,10.00
2018-08-17T12:02:46.061Z,9.90
2018-08-17T12:05:14.001Z,8.00
2018-08-17T12:07:44.808Z,10.23
2018-08-17T12:10:12.884Z,11.97
2018-08-17T12:12:41.888Z,12.97
2018-08-17T12:15:10.680Z,11.43
2018-08-17T12:17:38.656Z,10.83
2018-08-17T12:20:06.802Z,10.93
2018-08-17T12:22:34.792Z,10.60
2018-08-17T12:25:03.047Z,15.50
2018-08-17T12:27:31.332Z,10.17
2018-08-17T12:29:59.493Z,9.60
2018-08-17T12:32:27.585Z,11.53
2018-08-17T12:34:55.654Z,13.10
2018-08-17T12:37:23.779Z,9.07
2018-08-17T12:39:51.884Z,11.00
2018-08-17T12:42:20.088Z,10.10
2018-08-17T12:44:48.200Z,8.80
2018-08-17T12:47:16.274Z,8.33
2018-08-17T12:49:44.604Z,11.37
2018-08-17T12:52:12.698Z,12.20
2018-08-17T12:54:40.800Z,10.23
2018-08-17T12:57:08.832Z,10.10
2018-08-17T12:59:36.861Z,13.07
2018-08-17T13:02:05.105Z,9.03
2018-08-17T13:04:33.137Z,8.50
2018-08-17T13:07:01.199Z,7.87
2018-08-17T13:09:29.289Z,8.17
2018-08-17T13:11:58.946Z,11.53
2018-08-17T13:14:27.345Z,11.90
2018-08-17T13:16:56.825Z,7.53
2018-08-17T13:19:24.977Z,9.70
2018-08-17T13:21:52.979Z,10.63
2018-08-17T13:24:21.128Z,8.37
2018-08-17T13:26:49.124Z,9.17
2018-08-17T13:29:17.213Z,8.60
2018-08-17T13:31:45.596Z,7.63
2018-08-17T13:34:13.733Z,11.00
2018-08-17T13:36:42.063Z,10.73
2018-08-17T13:39:10.935Z,9.20
2018-08-17T13:41:39.031Z,8.83
2018-08-17T13:44:09.768Z,7.90
2018-08-17T13:46:37.770Z,8.60
2018-08-17T13:49:06.255Z,4.30
2018-08-17T13:51:34.247Z,7.63
2018-08-17T13:54:02.491Z,8.83
2018-08-17T13:56:30.592Z,7.03
2018-08-17T13:58:58.741Z,7.73
2018-08-17T14:01:27.172Z,7.87
2018-08-17T14:03:55.164Z,7.83
2018-08-17T14:06:23.252Z,9.63
2018-08-17T14:08:51.631Z,10.50
2018-08-17T14:11:19.819Z,9.13
2018-08-17T14:13:47.849Z,5.07
2018-08-17T14:16:15.943Z,7.40
2018-08-17T14:18:43.965Z,6.13
2018-08-17T14:21:12.038Z,6.20
2018-08-17T14:23:40.232Z,8.83
2018-08-17T14:26:08.310Z,9.30
2018-08-17T14:28:36.422Z,9.40
2018-08-17T14:31:04.468Z,6.80
2018-08-17T14:33:32.601Z,5.40
2018-08-17T14:36:00.607Z,4.20
2018-08-17T14:38:32.092Z,3.40
2018-08-17T14:41:00.504Z,5.13
2018-08-17T14:43:28.597Z,6.30
2018-08-17T14:45:56.617Z,6.33
2018-08-17T14:48:24.736Z,7.63
2018-08-17T14:50:52.835Z,7.50
2018-08-17T14:53:20.823Z,6.83
2018-08-17T14:55:48.836Z,8.60
2018-08-17T14:58:17.881Z,6.77
2018-08-17T15:00:45.862Z,6.93
2018-08-17T15:03:13.910Z,6.43
2018-08-17T15:05:41.992Z,9.40
2018-08-17T15:08:10.043Z,9.50
2018-08-17T15:10:38.064Z,6.00
2018-08-17T15:13:06.160Z,8.67
2018-08-17T15:15:34.282Z,4.67
2018-08-17T15:18:02.326Z,7.87
2018-08-17T15:20:30.459Z,5.27
2018-08-17T15:22:58.445Z,5.93
2018-08-17T15:25:26.553Z,5.00
2018-08-17T15:27:54.649Z,4.93
2018-08-17T15:30:22.696Z,6.23
2018-08-17T15:32:50.750Z,7.00
2018-08-17T15:35:18.796Z,8.60
2018-08-17T15:37:46.806Z,5.57
2018-08-17T15:40:14.792Z,11.47
2018-08-17T15:42:42.771Z,5.13
2018-08-17T15:45:11.194Z,5.07
2018-08-17T15:47:39.191Z,7.77
2018-08-17T15:50:16.282Z,5.23
2018-08-17T15:52:44.643Z,5.33
2018-08-17T15:55:16.171Z,5.40
2018-08-17T15:57:44.284Z,6.47
2018-08-17T16:00:16.635Z,7.87
2018-08-17T16:02:44.708Z,4.97
2018-08-17T16:05:12.850Z,5.60
2018-08-17T16:07:40.960Z,5.70
2018-08-17T16:10:11.383Z,10.23
2018-08-17T16:12:39.420Z,3.90
2018-08-17T16:15:08.493Z,5.70
2018-08-17T16:17:38.035Z,3.07
2018-08-17T16:20:07.339Z,5.20
2018-08-17T16:22:35.466Z,5.93
2018-08-17T16:25:03.513Z,6.07
2018-08-17T16:27:32.507Z,10.10
2018-08-17T16:30:00.529Z,3.33
2018-08-17T16:32:28.533Z,5.87
2018-08-17T16:34:56.534Z,6.90
2018-08-17T16:37:24.753Z,4.60
2018-08-17T16:39:53.420Z,4.70
2018-08-17T16:42:27.220Z,4.43
2018-08-17T16:44:55.681Z,6.00
2018-08-17T16:47:23.759Z,8.10
2018-08-17T16:50:04.763Z,7.13
2018-08-17T16:52:47.276Z,8.43
2018-08-17T16:55:15.430Z,8.83
2018-08-17T16:57:43.417Z,7.40
2018-08-17T17:00:11.782Z,9.40
2018-08-17T17:02:40.365Z,6.80
2018-08-17T17:05:08.677Z,3.87
2018-08-17T17:07:36.768Z,4.43
2018-08-17T17:10:06.772Z,4.93
2018-08-17T17:12:34.839Z,5.67
2018-08-17T17:15:09.888Z,7.57
2018-08-17T17:17:37.848Z,8.50
2018-08-17T17:20:06.920Z,4.40
2018-08-17T17:22:37.284Z,5.97
2018-08-17T17:25:11.449Z,5.33
2018-08-17T17:27:39.691Z,7.80
2018-08-17T17:30:07.689Z,4.73
2018-08-17T17:32:35.896Z,4.20
2018-08-17T17:35:06.382Z,6.20
2018-08-17T17:37:34.593Z,8.67
2018-08-17T17:40:02.877Z,6.93
2018-08-17T17:42:33.800Z,8.07
2018-08-17T17:45:01.963Z,6.53
2018-08-17T17:47:30.079Z,5.20
2018-08-17T17:49:58.797Z,4.33
2018-08-17T17:52:26.851Z,5.70
2018-08-17T17:54:55.020Z,8.27
2018-08-17T17:57:22.986Z,4.70
2018-08-17T17:59:56.812Z,5.73
2018-08-17T18:02:25.464Z,4.27
2018-08-17T18:04:53.484Z,9.87
2018-08-17T18:07:21.987Z,4.70
2018-08-17T18:09:50.036Z,7.10
2018-08-17T18:12:18.113Z,4.57
2018-08-17T18:14:46.367Z,11.60
2018-08-17T18:17:14.388Z,9.00
2018-08-17T18:19:42.505Z,7.63
2018-08-17T18:22:18.331Z,6.80
2018-08-17T18:24:46.405Z,5.97
2018-08-17T18:27:14.560Z,7.60
2018-08-17T18:29:42.550Z,6.83
2018-08-17T18:32:10.769Z,8.83
2018-08-17T18:34:38.782Z,6.97
2018-08-17T18:37:06.841Z,13.07
2018-08-17T18:39:34.914Z,13.87
2018-08-17T18:42:03.117Z,8.93
2018-08-17T18:44:31.250Z,6.90
2018-08-17T18:46:59.304Z,9.83
2018-08-17T18:49:27.390Z,9.17
2018-08-17T18:51:58.548Z,8.87
2018-08-17T18:54:26.596Z,8.43
2018-08-17T18:56:54.646Z,14.00
2018-08-17T18:59:22.873Z,7.80
2018-08-17T19:01:51.005Z,9.03
2018-08-17T19:04:19.158Z,7.60
2018-08-17T19:06:47.278Z,9.37
2018-08-17T19:09:15.464Z,6.37
2018-08-17T19:11:43.432Z,5.50
2018-08-17T19:14:11.606Z,13.40
2018-08-17T19:16:39.898Z,7.80
2018-08-17T19:19:08.052Z,7.80
2018-08-17T19:21:36.117Z,12.50
2018-08-17T19:24:09.444Z,8.27
2018-08-17T19:26:37.661Z,8.17
2018-08-17T19:29:05.774Z,9.70
2018-08-17T19:31:33.949Z,18.07
2018-08-17T19:34:02.737Z,10.03
2018-08-17T19:36:32.868Z,10.47
2018-08-17T19:39:00.857Z,8.57
2018-08-17T19:41:29.236Z,8.97
2018-08-17T19:43:58.521Z,7.87
2018-08-17T19:46:26.621Z,8.60
2018-08-17T19:48:54.779Z,8.63
2018-08-17T19:51:23.033Z,11.87
2018-08-17T19:53:51.085Z,23.17
2018-08-17T19:56:19.065Z,17.07
2018-08-17T19:58:47.266Z,8.13
2018-08-17T20:01:19.043Z,7.97
2018-08-17T20:03:47.216Z,9.73
2018-08-17T20:06:15.408Z,8.27
2018-08-17T20:08:43.586Z,10.87
2018-08-17T20:11:11.590Z,10.00
2018-08-17T20:13:39.570Z,9.93
2018-08-17T20:16:16.291Z,7.37
2018-08-17T20:18:44.422Z,9.20
2018-08-17T20:21:12.600Z,10.13
2018-08-17T20:23:41.039Z,8.87
2018-08-17T20:26:09.305Z,8.67
2018-08-17T20:28:37.091Z,8.80
2018-08-17T20:31:05.248Z,9.43
2018-08-17T20:33:33.278Z,11.83
2018-08-17T20:36:01.430Z,7.57
2018-08-17T20:38:29.558Z,9.23
2018-08-17T20:40:59.317Z,8.93
2018-08-17T20:43:27.830Z,6.33
2018-08-17T20:45:55.857Z,7.13
2018-08-17T20:48:28.845Z,8.13
2018-08-17T20:50:57.019Z,12.63
2018-08-17T20:53:25.158Z,9.70
2018-08-17T20:55:53.243Z,7.93
2018-08-17T20:58:21.238Z,9.43
2018-08-17T21:00:49.255Z,5.50
2018-08-17T21:03:17.224Z,8.47
2018-08-17T21:05:45.294Z,8.03
2018-08-17T21:08:13.312Z,6.27
2018-08-17T21:10:41.284Z,11.57
2018-08-17T21:13:09.329Z,7.33
2018-08-17T21:15:37.500Z,6.40
2018-08-17T21:18:05.556Z,9.27
2018-08-17T21:20:33.782Z,9.00
2018-08-17T21:23:01.845Z,9.70
2018-08-17T21:25:29.852Z,7.60
2018-08-17T21:27:57.857Z,8.50
2018-08-17T21:30:25.895Z,8.20
2018-08-17T21:32:53.949Z,7.40
2018-08-17T21:35:22.057Z,9.20
2018-08-17T21:37:53.871Z,7.67
2018-08-17T21:40:27.415Z,7.33
2018-08-17T21:42:56.089Z,10.57
2018-08-17T21:45:24.066Z,9.13
2018-08-17T21:47:52.154Z,7.20
2018-08-17T21:50:25.088Z,8.43
2018-08-17T21:53:14.940Z,9.87
2018-08-17T21:55:43.200Z,10.27
2018-08-17T21:58:11.207Z,9.50
2018-08-17T22:00:39.157Z,11.83
2018-08-17T22:03:20.617Z,9.97
2018-08-17T22:05:48.680Z,8.70
2018-08-17T22:08:16.810Z,13.37
2018-08-17T22:10:44.848Z,8.97
2018-08-17T22:13:24.511Z,10.43
2018-08-17T22:15:52.835Z,9.57
2018-08-17T22:18:20.775Z,9.17
2018-08-17T22:20:48.660Z,14.47
2018-08-17T22:23:16.845Z,7.83
2018-08-17T22:25:44.801Z,8.57
2018-08-17T22:28:12.798Z,8.13
2018-08-17T22:30:42.049Z,12.60
2018-08-17T22:33:10.486Z,15.80
2018-08-17T22:35:38.466Z,13.63
2018-08-17T22:38:06.476Z,11.07
2018-08-17T22:40:34.602Z,8.30
2018-08-17T22:43:02.656Z,9.77
2018-08-17T22:45:30.636Z,12.67
2018-08-17T22:47:58.974Z,7.43
2018-08-17T22:50:26.998Z,12.40
2018-08-17T22:52:54.940Z,8.93
2018-08-17T22:55:22.958Z,9.83
2018-08-17T22:57:51.001Z,9.83
2018-08-17T23:00:22.564Z,8.50
2018-08-17T23:02:51.701Z,9.43
2018-08-17T23:05:22.325Z,10.73
2018-08-17T23:07:50.286Z,8.13
2018-08-17T23:10:19.546Z,9.47
2018-08-17T23:12:48.720Z,8.97
2018-08-17T23:15:16.769Z,10.07
2018-08-17T23:17:48.393Z,9.83
2018-08-17T23:20:20.889Z,8.47
2018-08-17T23:22:50.992Z,9.47
2018-08-17T23:25:19.131Z,8.90
2018-08-17T23:27:47.858Z,5.63
2018-08-17T23:30:15.899Z,9.27
2018-08-17T23:32:44.401Z,9.83
2018-08-17T23:35:12.400Z,7.00
2018-08-17T23:37:40.401Z,6.67
2018-08-17T23:40:09.176Z,6.60
2018-08-17T23:42:37.238Z,8.53
2018-08-17T23:45:07.795Z,12.63
2018-08-17T23:47:35.833Z,7.20
2018-08-17T23:50:04.385Z,6.30
2018-08-17T23:52:32.344Z,5.73
2018-08-17T23:55:00.244Z,10.93
2018-08-17T23:57:28.280Z,9.47
2018-08-17T23:59:57.382Z,6.57
